createdAt,value
2023-03-23T18:36:30.452Z,2.00
2023-03-23T18:38:58.722Z,4.55
2023-03-23T18:41:27.538Z,5.57
2023-03-23T18:43:57.540Z,7.97
2023-03-23T18:46:25.940Z,10.50
2023-03-23T18:48:53.899Z,11.93
2023-03-23T18:51:21.947Z,15.25
2023-03-23T18:53:51.173Z,16.40
2023-03-23T18:56:19.405Z,16.77
2023-03-23T18:58:47.451Z,15.85
2023-03-23T19:01:17.520Z,18.83
2023-03-23T19:03:46.629Z,20.25
2023-03-23T19:06:18.853Z,23.90
2023-03-23T19:08:47.057Z,21.58
2023-03-23T19:11:17.322Z,23.90
2023-03-23T19:13:58.335Z,25.00
2023-03-23T19:16:31.026Z,26.30
2023-03-23T19:18:58.954Z,26.50
2023-03-23T19:21:29.657Z,31.00
2023-03-23T19:23:59.423Z,27.75
2023-03-23T19:26:34.754Z,34.28
2023-03-23T19:29:25.269Z,33.20
2023-03-23T19:31:50.978Z,33.80
2023-03-23T19:34:18.968Z,34.00
2023-03-23T19:36:54.349Z,34.85
2023-03-23T19:39:24.221Z,35.55
2023-03-23T19:41:55.815Z,34.55
2023-03-23T19:44:24.972Z,34.90
2023-03-23T19:46:54.969Z,37.25
2023-03-23T19:49:23.127Z,37.55
2023-03-23T19:51:52.446Z,35.83
2023-03-23T19:54:37.419Z,40.25
2023-03-23T19:57:06.876Z,38.60
2023-03-23T19:59:35.078Z,39.47
2023-03-23T20:02:03.593Z,44.28
2023-03-23T20:04:31.673Z,42.10
2023-03-23T20:07:00.488Z,43.85
2023-03-23T20:09:28.668Z,43.28
2023-03-23T20:11:56.704Z,45.20
2023-03-23T20:14:26.525Z,44.28
2023-03-23T20:16:54.957Z,44.88
2023-03-23T20:19:23.561Z,46.15
2023-03-23T20:21:52.349Z,47.50
2023-03-23T20:24:20.689Z,48.30
2023-03-23T20:26:48.627Z,49.20
2023-03-23T20:29:16.572Z,50.45
2023-03-23T20:31:46.486Z,50.50
2023-03-23T20:34:17.143Z,49.55
2023-03-23T20:36:46.985Z,54.67
2023-03-23T20:39:18.993Z,55.90
2023-03-23T20:41:47.540Z,56.42
2023-03-23T20:44:16.049Z,53.03
2023-03-23T20:46:46.224Z,54.28
2023-03-23T20:49:15.763Z,53.05
2023-03-23T20:51:44.783Z,50.88
2023-03-23T20:54:14.076Z,49.03
2023-03-23T20:56:42.405Z,49.95
2023-03-23T20:59:10.949Z,51.15
2023-03-23T21:01:40.349Z,51.05
2023-03-23T21:04:16.350Z,48.58
2023-03-23T21:06:45.497Z,51.15
2023-03-23T21:09:14.616Z,49.17
2023-03-23T21:11:43.118Z,50.97
2023-03-23T21:14:11.805Z,50.80
2023-03-23T21:16:40.192Z,52.38
2023-03-23T21:19:09.603Z,52.03
2023-03-23T21:21:42.234Z,54.78
2023-03-23T21:24:27.999Z,55.28
2023-03-23T21:26:57.384Z,53.10
2023-03-23T21:29:27.208Z,52.65
2023-03-23T21:32:07.811Z,56.60
2023-03-23T21:34:38.467Z,56.75
2023-03-23T21:37:06.544Z,54.78
2023-03-23T21:39:34.790Z,56.53
2023-03-23T21:42:06.632Z,58.53
2023-03-23T21:44:35.772Z,57.80
2023-03-23T21:47:04.102Z,61.20
2023-03-23T21:49:32.054Z,58.10
2023-03-23T21:52:02.044Z,62.47
2023-03-23T21:54:30.514Z,61.70
2023-03-23T21:56:58.798Z,65.60
2023-03-23T21:59:27.336Z,63.70
2023-03-23T22:01:58.074Z,60.42
2023-03-23T22:04:27.859Z,63.90
2023-03-23T22:06:56.755Z,62.90
2023-03-23T22:09:26.307Z,61.38
2023-03-23T22:11:54.373Z,64.10
2023-03-23T22:14:22.499Z,62.88
2023-03-23T22:16:50.544Z,62.40
2023-03-23T22:19:18.829Z,61.38
2023-03-23T22:21:47.285Z,64.32
2023-03-23T22:24:15.932Z,66.38
2023-03-23T22:26:45.581Z,64.63
2023-03-23T22:29:16.798Z,63.67
2023-03-23T22:31:46.022Z,62.60
2023-03-23T22:34:14.580Z,65.10
2023-03-23T22:36:42.636Z,67.18
2023-03-23T22:39:11.127Z,68.07
2023-03-23T22:41:40.470Z,62.85
2023-03-23T22:44:14.285Z,70.10
2023-03-23T22:46:42.671Z,67.68
2023-03-23T22:49:10.908Z,69.82
2023-03-23T22:51:39.144Z,64.47
